createdAt,value
2017-10-17T00:01:26.019Z,15.40
2017-10-17T00:03:54.287Z,15.40
2017-10-17T00:06:21.769Z,15.30
2017-10-17T00:08:49.246Z,15.40
2017-10-17T00:11:17.497Z,15.50
2017-10-17T00:13:44.978Z,15.50
2017-10-17T00:16:13.232Z,15.40
2017-10-17T00:18:40.731Z,15.40
2017-10-17T00:21:08.220Z,15.30
2017-10-17T00:23:35.712Z,15.40
2017-10-17T00:26:03.205Z,15.40
2017-10-17T00:28:31.455Z,15.30
2017-10-17T00:30:59.704Z,15.30
2017-10-17T00:33:27.186Z,15.20
2017-10-17T00:35:59.221Z,15.30
2017-10-17T00:38:28.554Z,15.20
2017-10-17T00:40:56.038Z,15.30
2017-10-17T00:43:24.347Z,15.30
2017-10-17T00:45:51.829Z,15.30
2017-10-17T00:48:23.930Z,15.30
2017-10-17T00:50:52.191Z,15.10
2017-10-17T00:53:19.672Z,15.10
2017-10-17T00:55:47.924Z,15.00
2017-10-17T00:58:19.982Z,15.00
2017-10-17T01:00:47.472Z,15.10
2017-10-17T01:03:15.726Z,15.20
2017-10-17T01:05:43.210Z,15.10
2017-10-17T01:08:11.462Z,15.10
2017-10-17T01:10:38.954Z,15.10
2017-10-17T01:13:07.203Z,15.10
2017-10-17T01:15:34.689Z,15.00
2017-10-17T01:18:02.925Z,15.30
2017-10-17T01:20:30.397Z,15.20
2017-10-17T01:22:57.873Z,15.10
2017-10-17T01:25:26.161Z,15.00
2017-10-17T01:27:55.922Z,15.00
2017-10-17T01:30:23.408Z,14.90
2017-10-17T01:32:50.895Z,15.00
2017-10-17T01:35:18.374Z,15.00
2017-10-17T01:37:45.858Z,14.90
2017-10-17T01:40:27.959Z,14.80
2017-10-17T01:42:55.443Z,14.70
2017-10-17T01:45:23.711Z,14.60
2017-10-17T01:47:53.755Z,14.60
2017-10-17T01:50:22.004Z,14.50
2017-10-17T01:52:50.300Z,14.40
2017-10-17T01:55:17.786Z,14.40
2017-10-17T01:57:59.757Z,14.40
2017-10-17T02:00:27.998Z,14.50
2017-10-17T02:02:55.477Z,14.40
2017-10-17T02:05:22.957Z,14.40
2017-10-17T02:07:53.951Z,14.50
2017-10-17T02:10:21.443Z,14.50
2017-10-17T02:12:48.917Z,14.50
2017-10-17T02:15:17.165Z,14.40
2017-10-17T02:17:47.191Z,14.40
2017-10-17T02:20:14.666Z,14.40
2017-10-17T02:22:42.140Z,14.50
2017-10-17T02:25:14.698Z,14.40
2017-10-17T02:27:42.182Z,14.30
2017-10-17T02:30:10.426Z,14.30
2017-10-17T02:32:37.898Z,14.20
2017-10-17T02:35:18.637Z,14.20
2017-10-17T02:37:46.128Z,14.20
2017-10-17T02:40:14.376Z,14.20
2017-10-17T02:42:41.871Z,14.10
2017-10-17T02:45:10.112Z,14.20
2017-10-17T02:47:39.290Z,14.10
2017-10-17T02:50:08.144Z,14.00
2017-10-17T02:52:42.986Z,14.10
2017-10-17T02:55:25.356Z,14.00
2017-10-17T02:57:52.831Z,14.10
2017-10-17T03:00:21.079Z,14.20
2017-10-17T03:02:50.511Z,14.20
2017-10-17T03:05:18.762Z,14.10
2017-10-17T03:07:52.594Z,14.10
2017-10-17T03:10:20.843Z,14.10
2017-10-17T03:12:48.326Z,14.10
2017-10-17T03:15:27.666Z,14.10
2017-10-17T03:17:55.915Z,14.20
2017-10-17T03:20:33.306Z,14.10
2017-10-17T03:23:02.358Z,14.10
2017-10-17T03:25:29.835Z,14.10
2017-10-17T03:28:15.762Z,14.00
2017-10-17T03:30:47.168Z,14.10
2017-10-17T03:33:29.581Z,14.10
2017-10-17T03:35:57.073Z,14.00
2017-10-17T03:38:44.447Z,14.10
2017-10-17T03:44:28.094Z,14.00
2017-10-17T03:46:56.342Z,13.90
2017-10-17T03:49:28.539Z,13.90
2017-10-17T03:51:56.778Z,13.90
2017-10-17T03:54:37.737Z,13.90
2017-10-17T03:57:11.638Z,13.90
2017-10-17T03:59:45.074Z,13.80
2017-10-17T04:02:12.564Z,13.70
2017-10-17T04:04:47.409Z,13.70
2017-10-17T04:10:36.947Z,13.70
2017-10-17T04:13:12.358Z,13.70
2017-10-17T04:15:39.853Z,13.80
2017-10-17T04:18:28.789Z,13.80
2017-10-17T04:20:59.279Z,13.80
2017-10-17T04:23:34.026Z,13.80
2017-10-17T04:26:07.123Z,13.80
2017-10-17T04:28:39.574Z,13.80
2017-10-17T04:31:23.337Z,13.70
2017-10-17T04:34:11.195Z,13.70
2017-10-17T04:39:32.074Z,13.70
2017-10-17T04:42:07.930Z,13.60
2017-10-17T04:44:48.126Z,13.60
2017-10-17T04:47:18.066Z,13.60
2017-10-17T04:53:24.243Z,13.50
2017-10-17T04:55:51.723Z,13.50
2017-10-17T04:58:24.188Z,13.40
2017-10-17T05:00:51.697Z,13.50
2017-10-17T05:03:24.722Z,13.50
2017-10-17T05:05:54.995Z,13.40
2017-10-17T05:08:29.863Z,13.30
2017-10-17T05:11:00.760Z,13.30
2017-10-17T05:13:34.872Z,13.40
2017-10-17T05:16:09.212Z,13.40
2017-10-17T05:21:31.646Z,13.60
2017-10-17T05:24:03.869Z,13.60
2017-10-17T05:26:31.363Z,13.50
2017-10-17T05:29:17.234Z,13.50
2017-10-17T05:31:48.299Z,13.50
2017-10-17T05:34:27.481Z,13.40
2017-10-17T05:36:59.629Z,13.40
2017-10-17T05:39:27.874Z,13.50
2017-10-17T05:41:55.368Z,13.40
2017-10-17T05:44:31.108Z,13.50
2017-10-17T05:47:01.276Z,13.40
2017-10-17T05:49:35.370Z,13.50
2017-10-17T05:52:02.855Z,13.50
2017-10-17T05:54:30.328Z,13.40
2017-10-17T05:56:57.814Z,13.40
2017-10-17T05:59:25.300Z,13.30
2017-10-17T06:01:53.550Z,13.30
2017-10-17T06:04:21.035Z,13.20
2017-10-17T06:06:49.292Z,13.40
2017-10-17T06:09:16.769Z,13.30
2017-10-17T06:11:45.072Z,13.30
2017-10-17T06:14:12.554Z,13.30
2017-10-17T06:16:40.043Z,13.40
2017-10-17T06:19:07.519Z,13.40
2017-10-17T06:21:35.766Z,13.40
2017-10-17T06:24:03.254Z,13.40
2017-10-17T06:26:31.514Z,13.40
2017-10-17T06:28:59.007Z,13.40
2017-10-17T06:31:26.504Z,13.50
2017-10-17T06:33:54.008Z,13.50
2017-10-17T06:36:22.280Z,13.50
2017-10-17T06:38:49.757Z,13.50
2017-10-17T06:41:17.247Z,13.50
2017-10-17T06:43:44.730Z,13.60
2017-10-17T06:46:12.213Z,13.60
2017-10-17T06:48:40.461Z,13.70
2017-10-17T06:51:07.948Z,13.60
2017-10-17T06:53:36.194Z,13.70
2017-10-17T06:56:03.675Z,13.60
2017-10-17T06:58:31.168Z,13.70
2017-10-17T07:00:58.642Z,13.70
2017-10-17T07:03:26.120Z,13.70
2017-10-17T07:05:53.614Z,13.70
2017-10-17T07:08:21.102Z,13.70
2017-10-17T07:10:48.580Z,13.70
2017-10-17T07:13:16.088Z,13.80
2017-10-17T07:15:43.575Z,13.70
2017-10-17T07:18:11.072Z,14.20
2017-10-17T07:20:38.563Z,14.20
2017-10-17T07:23:06.047Z,14.80
2017-10-17T07:25:33.534Z,15.60
2017-10-17T07:28:01.020Z,16.10
2017-10-17T07:30:28.508Z,16.40
2017-10-17T07:32:56.763Z,16.20
2017-10-17T07:35:24.250Z,16.20
2017-10-17T07:37:52.506Z,16.40
2017-10-17T07:40:20.762Z,16.20
2017-10-17T07:42:48.256Z,16.10
2017-10-17T07:45:16.511Z,16.10
2017-10-17T07:47:44.006Z,16.10
2017-10-17T07:50:12.254Z,16.70
2017-10-17T07:52:39.752Z,16.70
2017-10-17T07:55:07.235Z,15.80
2017-10-17T07:57:34.732Z,15.60
2017-10-17T08:00:02.223Z,16.50
2017-10-17T08:02:29.719Z,16.30
2017-10-17T08:04:57.199Z,16.10
2017-10-17T08:07:24.701Z,16.00
2017-10-17T08:09:52.946Z,16.20
2017-10-17T08:12:20.434Z,16.20
2017-10-17T08:14:48.690Z,16.30
2017-10-17T08:17:16.178Z,16.30
2017-10-17T08:19:43.667Z,15.90
2017-10-17T08:22:11.160Z,16.20
2017-10-17T08:24:38.660Z,16.00
2017-10-17T08:27:06.155Z,15.80
2017-10-17T08:29:33.647Z,15.70
2017-10-17T08:32:01.132Z,15.70
2017-10-17T08:34:28.623Z,15.80
2017-10-17T08:36:56.112Z,15.80
2017-10-17T08:39:23.615Z,15.80
2017-10-17T08:41:51.097Z,15.90
2017-10-17T08:44:18.590Z,15.90
2017-10-17T08:46:46.090Z,15.90
2017-10-17T08:49:13.574Z,15.90
2017-10-17T08:51:41.064Z,16.00
2017-10-17T08:54:08.588Z,15.90
2017-10-17T08:56:36.060Z,15.90
2017-10-17T08:59:03.539Z,16.00
2017-10-17T09:01:31.827Z,16.00
2017-10-17T09:03:59.314Z,16.00
2017-10-17T09:06:27.572Z,16.10
2017-10-17T09:08:55.851Z,16.10
2017-10-17T09:11:24.107Z,16.10
2017-10-17T09:13:51.602Z,16.00
2017-10-17T09:16:19.858Z,16.10
2017-10-17T09:18:47.347Z,16.10
2017-10-17T09:21:14.830Z,16.20
2017-10-17T09:23:42.319Z,16.20
2017-10-17T09:26:09.801Z,16.30
2017-10-17T09:28:38.055Z,16.40
2017-10-17T09:31:05.540Z,16.30
2017-10-17T09:33:33.798Z,16.50
2017-10-17T09:36:01.294Z,16.50
2017-10-17T09:38:28.829Z,16.50
2017-10-17T09:40:57.081Z,16.50
2017-10-17T09:43:24.571Z,16.50
2017-10-17T09:45:52.831Z,16.60
2017-10-17T09:48:20.322Z,16.50
2017-10-17T09:50:47.812Z,16.60
2017-10-17T09:53:15.295Z,16.60
2017-10-17T09:55:42.788Z,16.70
2017-10-17T09:58:11.042Z,16.90
2017-10-17T10:00:38.541Z,16.80
2017-10-17T10:03:06.031Z,16.70
2017-10-17T10:05:33.513Z,16.80
2017-10-17T10:08:01.013Z,16.90
2017-10-17T10:10:28.533Z,16.90
2017-10-17T10:12:56.031Z,16.90
2017-10-17T10:15:23.518Z,16.90
2017-10-17T10:17:51.001Z,17.00
2017-10-17T10:20:18.503Z,17.00
2017-10-17T10:22:46.774Z,17.00
2017-10-17T10:25:15.026Z,17.00
2017-10-17T10:27:42.519Z,16.90
2017-10-17T10:30:10.774Z,17.00
2017-10-17T10:32:38.249Z,17.00
2017-10-17T10:35:06.521Z,17.40
2017-10-17T10:37:34.797Z,17.30
2017-10-17T10:40:03.051Z,17.30
2017-10-17T10:42:30.549Z,17.20
2017-10-17T10:44:58.043Z,17.30
2017-10-17T10:47:25.525Z,17.50
2017-10-17T10:49:53.013Z,17.50
2017-10-17T10:52:21.261Z,17.50
2017-10-17T10:54:48.752Z,17.40
2017-10-17T10:57:17.036Z,17.50
2017-10-17T10:59:45.299Z,17.50
2017-10-17T11:02:13.566Z,17.60
2017-10-17T11:04:41.056Z,17.50
2017-10-17T11:07:08.542Z,17.60
2017-10-17T11:09:36.054Z,17.60
2017-10-17T11:12:04.306Z,17.60
2017-10-17T11:14:31.807Z,17.60
2017-10-17T11:16:59.292Z,17.70
2017-10-17T11:19:26.794Z,17.70
2017-10-17T11:21:54.286Z,17.80
2017-10-17T11:24:21.763Z,17.80
2017-10-17T11:26:49.250Z,18.00
2017-10-17T11:29:16.747Z,18.00
2017-10-17T11:31:45.001Z,18.00
2017-10-17T11:34:12.486Z,18.00
2017-10-17T11:36:40.758Z,17.90
2017-10-17T11:39:09.017Z,18.00
2017-10-17T11:41:48.367Z,18.00
2017-10-17T11:44:16.630Z,17.90
2017-10-17T11:46:44.118Z,17.90
2017-10-17T11:49:12.378Z,18.10
2017-10-17T11:51:40.663Z,18.00
2017-10-17T11:54:08.911Z,18.10
2017-10-17T11:56:36.401Z,18.00
2017-10-17T11:59:04.655Z,18.00
2017-10-17T12:01:32.557Z,18.00
2017-10-17T12:04:01.337Z,18.10
2017-10-17T12:06:29.792Z,18.20
2017-10-17T12:08:57.746Z,18.10
2017-10-17T12:11:25.662Z,18.20
2017-10-17T12:13:55.139Z,18.50
2017-10-17T12:16:23.154Z,18.50
2017-10-17T12:18:50.635Z,18.70
2017-10-17T12:21:18.168Z,18.70
2017-10-17T12:23:45.658Z,18.70
2017-10-17T12:26:13.163Z,18.60
2017-10-17T12:28:41.482Z,18.70
2017-10-17T12:31:08.970Z,18.70
2017-10-17T12:33:36.525Z,18.70
2017-10-17T12:36:04.205Z,18.70
2017-10-17T12:38:31.680Z,18.60
2017-10-17T12:40:59.941Z,18.70
2017-10-17T12:43:27.428Z,18.70
2017-10-17T12:45:55.695Z,18.70
2017-10-17T12:48:23.951Z,18.70
2017-10-17T12:50:51.439Z,18.70
2017-10-17T12:53:19.709Z,18.80
2017-10-17T12:55:47.958Z,18.80
2017-10-17T12:58:15.442Z,18.70
2017-10-17T13:00:43.717Z,18.80
2017-10-17T13:03:12.083Z,18.80
2017-10-17T13:05:39.623Z,18.80
2017-10-17T13:08:07.097Z,18.80
2017-10-17T13:10:34.582Z,18.80
2017-10-17T13:13:02.874Z,18.90
2017-10-17T13:15:31.129Z,18.90
2017-10-17T13:17:58.610Z,18.90
2017-10-17T13:20:26.895Z,18.90
2017-10-17T13:22:54.408Z,18.90
2017-10-17T13:25:21.928Z,18.90
2017-10-17T13:27:49.461Z,18.90
2017-10-17T13:30:17.720Z,18.90
2017-10-17T13:32:46.077Z,18.90
2017-10-17T13:35:13.565Z,18.90
2017-10-17T13:37:41.862Z,18.90
2017-10-17T13:40:09.376Z,18.90
2017-10-17T13:42:36.876Z,19.00
2017-10-17T13:45:05.139Z,18.90
2017-10-17T13:47:33.740Z,19.00
2017-10-17T13:50:02.062Z,19.10
2017-10-17T13:52:29.649Z,19.00
2017-10-17T13:54:57.221Z,19.10
2017-10-17T13:57:24.722Z,19.10
2017-10-17T13:59:52.271Z,19.10
2017-10-17T14:02:19.775Z,19.10
2017-10-17T14:04:47.264Z,19.20
2017-10-17T14:07:15.521Z,19.10
2017-10-17T14:09:43.016Z,19.00
2017-10-17T14:12:10.542Z,19.10
2017-10-17T14:14:38.323Z,19.10
2017-10-17T14:17:06.571Z,19.10
2017-10-17T14:19:34.063Z,19.10
2017-10-17T14:22:02.314Z,19.10
2017-10-17T14:24:29.804Z,19.10
2017-10-17T14:26:58.055Z,19.00
2017-10-17T14:29:25.544Z,19.00
2017-10-17T14:31:53.785Z,19.00
2017-10-17T14:34:21.261Z,19.00
2017-10-17T14:36:48.749Z,19.00
2017-10-17T14:39:16.243Z,19.00
2017-10-17T14:41:43.733Z,19.00
2017-10-17T14:44:11.231Z,19.00
2017-10-17T14:46:38.727Z,19.00
2017-10-17T14:49:06.982Z,19.00
2017-10-17T14:51:34.498Z,19.00
2017-10-17T14:54:02.023Z,19.10
2017-10-17T14:56:29.518Z,19.00
2017-10-17T14:58:57.774Z,19.00
2017-10-17T15:01:25.269Z,19.00
2017-10-17T15:03:53.522Z,19.10
2017-10-17T15:06:21.019Z,19.00
2017-10-17T15:08:48.506Z,19.10
2017-10-17T15:11:15.987Z,19.00
2017-10-17T15:13:43.471Z,19.00
2017-10-17T15:16:11.730Z,19.00
2017-10-17T15:18:39.224Z,19.00
2017-10-17T15:21:06.834Z,19.00
2017-10-17T15:23:34.355Z,19.10
2017-10-17T15:26:01.859Z,19.00
2017-10-17T15:28:29.333Z,19.00
2017-10-17T15:30:56.818Z,19.00
2017-10-17T15:33:25.077Z,19.00
2017-10-17T15:35:53.331Z,18.90
2017-10-17T15:38:20.808Z,18.90
2017-10-17T15:40:48.375Z,18.90
2017-10-17T15:43:16.621Z,18.90
2017-10-17T15:45:44.143Z,18.90
2017-10-17T15:48:11.662Z,18.90
2017-10-17T15:50:39.952Z,18.90
2017-10-17T15:53:08.198Z,18.90
2017-10-17T15:55:35.729Z,18.90
2017-10-17T15:58:03.240Z,18.90
2017-10-17T16:00:30.724Z,19.00
2017-10-17T16:02:58.214Z,18.90
2017-10-17T16:05:25.806Z,19.00
2017-10-17T16:07:53.309Z,19.00
2017-10-17T16:10:20.803Z,18.90
2017-10-17T16:12:49.079Z,18.90
2017-10-17T16:15:16.572Z,18.90
2017-10-17T16:17:44.856Z,18.80
2017-10-17T16:20:13.112Z,18.80
2017-10-17T16:22:40.607Z,18.80
2017-10-17T16:25:08.871Z,18.80
2017-10-17T16:27:37.146Z,18.70
2017-10-17T16:30:05.404Z,18.60
2017-10-17T16:32:32.914Z,18.60
2017-10-17T16:35:00.421Z,18.60
2017-10-17T16:37:27.946Z,18.60
2017-10-17T16:39:55.430Z,18.50
2017-10-17T16:42:22.915Z,18.50
2017-10-17T16:44:50.403Z,18.40
2017-10-17T16:47:17.902Z,18.40
2017-10-17T16:49:45.389Z,18.40
2017-10-17T16:52:13.662Z,18.30
2017-10-17T16:54:41.145Z,18.30
2017-10-17T16:57:09.403Z,18.30
2017-10-17T16:59:36.885Z,18.30
2017-10-17T17:02:05.153Z,18.30
2017-10-17T17:04:33.416Z,18.30
2017-10-17T17:07:00.907Z,18.30
2017-10-17T17:09:28.390Z,18.30
2017-10-17T17:11:55.889Z,18.30
2017-10-17T17:14:23.371Z,18.30
2017-10-17T17:16:51.633Z,18.20
2017-10-17T17:19:19.882Z,18.20
2017-10-17T17:21:47.385Z,18.10
2017-10-17T17:24:15.635Z,18.00
2017-10-17T17:26:43.137Z,18.00
2017-10-17T17:29:10.621Z,18.00
2017-10-17T17:31:38.107Z,17.90
2017-10-17T17:34:05.609Z,17.90
2017-10-17T17:36:33.095Z,18.00
2017-10-17T17:39:00.582Z,18.00
2017-10-17T17:41:28.078Z,18.10
2017-10-17T17:43:56.330Z,17.90
2017-10-17T17:46:25.345Z,17.90
2017-10-17T17:48:53.599Z,17.90
2017-10-17T17:51:21.124Z,17.80
2017-10-17T17:53:48.603Z,17.80
2017-10-17T17:56:16.086Z,17.70
2017-10-17T17:58:45.023Z,17.70
2017-10-17T18:01:13.347Z,17.60
2017-10-17T18:03:42.560Z,17.60
2017-10-17T18:06:10.880Z,17.50
2017-10-17T18:08:38.386Z,17.40
2017-10-17T18:11:05.897Z,17.50
2017-10-17T18:13:33.382Z,17.50
2017-10-17T18:16:00.881Z,17.40
2017-10-17T18:18:29.144Z,17.40
2017-10-17T18:20:57.406Z,17.40
2017-10-17T18:23:24.909Z,17.30
2017-10-17T18:25:52.403Z,17.40
2017-10-17T18:28:19.891Z,17.40
2017-10-17T18:30:47.388Z,17.30
2017-10-17T18:33:14.880Z,17.20
2017-10-17T18:35:42.382Z,17.30
2017-10-17T18:38:10.650Z,17.30
2017-10-17T18:40:38.145Z,17.30
2017-10-17T18:43:05.646Z,17.20
2017-10-17T18:45:33.157Z,17.20
2017-10-17T18:48:01.826Z,17.10
2017-10-17T18:50:30.574Z,17.10
2017-10-17T18:52:58.237Z,17.10
2017-10-17T18:55:26.369Z,17.10
2017-10-17T18:57:55.009Z,17.00
2017-10-17T19:00:22.963Z,16.90
2017-10-17T19:02:51.039Z,17.00
2017-10-17T19:05:18.796Z,17.00
2017-10-17T19:07:46.644Z,17.00
2017-10-17T19:10:14.451Z,16.90
2017-10-17T19:12:42.185Z,16.90
2017-10-17T19:15:10.102Z,16.90
2017-10-17T19:17:41.437Z,16.80
2017-10-17T19:20:08.986Z,16.70
2017-10-17T19:22:37.721Z,16.80
2017-10-17T19:25:06.504Z,16.70
2017-10-17T19:27:35.922Z,16.70
2017-10-17T19:30:03.803Z,16.60
2017-10-17T19:32:32.515Z,16.70
2017-10-17T19:35:00.377Z,16.70
2017-10-17T19:37:29.057Z,16.70
2017-10-17T19:39:56.810Z,16.70
2017-10-17T19:42:24.536Z,16.70
2017-10-17T19:44:52.403Z,16.70
2017-10-17T19:47:20.037Z,16.70
2017-10-17T19:49:47.800Z,16.70
2017-10-17T19:52:15.335Z,16.60
2017-10-17T19:54:43.175Z,16.60
2017-10-17T19:57:11.627Z,16.60
2017-10-17T19:59:39.224Z,16.50
2017-10-17T20:02:07.751Z,16.60
2017-10-17T20:04:35.398Z,16.50
2017-10-17T20:07:03.327Z,16.50
2017-10-17T20:09:32.066Z,16.50
2017-10-17T20:11:59.939Z,16.40
2017-10-17T20:14:27.719Z,16.40
2017-10-17T20:16:56.179Z,16.40
2017-10-17T20:19:24.378Z,16.40
2017-10-17T20:21:52.177Z,16.30
2017-10-17T20:24:20.667Z,16.20
2017-10-17T20:26:48.958Z,16.30
2017-10-17T20:29:16.569Z,16.30
2017-10-17T20:31:44.781Z,16.20
2017-10-17T20:34:13.807Z,16.20
2017-10-17T20:36:41.471Z,16.20
2017-10-17T20:39:09.474Z,16.40
2017-10-17T20:41:37.125Z,16.80
2017-10-17T20:44:04.910Z,16.80
2017-10-17T20:46:32.817Z,16.60
2017-10-17T20:49:01.754Z,16.20
2017-10-17T20:51:29.594Z,16.20
2017-10-17T20:53:57.537Z,16.10
2017-10-17T20:56:25.983Z,16.00
2017-10-17T20:58:53.918Z,16.00
2017-10-17T21:01:22.553Z,16.00
2017-10-17T21:03:50.101Z,16.00
2017-10-17T21:06:17.862Z,16.00
2017-10-17T21:08:45.494Z,16.40
2017-10-17T21:11:13.315Z,16.20
2017-10-17T21:13:42.048Z,16.00
2017-10-17T21:16:10.098Z,15.90
2017-10-17T21:18:38.292Z,16.00
2017-10-17T21:21:05.876Z,15.90
2017-10-17T21:23:33.462Z,15.80
2017-10-17T21:26:01.498Z,15.80
2017-10-17T21:28:29.134Z,15.90
2017-10-17T21:30:56.830Z,15.90
2017-10-17T21:33:24.580Z,15.80
2017-10-17T21:35:52.077Z,15.80
2017-10-17T21:38:19.573Z,15.60
2017-10-17T21:40:47.826Z,15.70
2017-10-17T21:43:15.302Z,15.60
2017-10-17T21:45:43.542Z,15.70
2017-10-17T21:50:53.175Z,15.80
2017-10-17T21:53:20.676Z,15.80
2017-10-17T21:55:48.166Z,15.80
2017-10-17T21:58:16.435Z,15.70
2017-10-17T22:00:56.694Z,15.70
2017-10-17T22:03:24.938Z,15.80
2017-10-17T22:05:52.429Z,15.80
2017-10-17T22:08:20.692Z,15.50
2017-10-17T22:10:48.177Z,15.40
2017-10-17T22:13:15.675Z,15.50
2017-10-17T22:15:43.156Z,15.40
2017-10-17T22:18:10.651Z,15.40
2017-10-17T22:20:38.898Z,15.20
2017-10-17T22:23:06.387Z,15.20
2017-10-17T22:25:34.637Z,15.20
2017-10-17T22:28:02.118Z,15.20
2017-10-17T22:30:30.396Z,15.10
2017-10-17T22:32:58.638Z,15.10
2017-10-17T22:35:26.113Z,15.00
2017-10-17T22:37:53.595Z,15.20
2017-10-17T22:40:21.843Z,15.10
2017-10-17T22:42:49.344Z,15.10
2017-10-17T22:45:16.827Z,15.20
2017-10-17T22:47:44.315Z,15.10
2017-10-17T22:50:11.995Z,15.10
2017-10-17T22:52:40.251Z,15.20
2017-10-17T22:55:07.733Z,15.10
2017-10-17T22:57:36.023Z,14.80
2017-10-17T23:00:04.274Z,14.90
2017-10-17T23:02:31.763Z,14.80
2017-10-17T23:05:00.015Z,15.00
2017-10-17T23:07:27.502Z,15.00
2017-10-17T23:09:54.993Z,15.00
2017-10-17T23:12:22.481Z,14.90
2017-10-17T23:14:49.959Z,14.90
2017-10-17T23:17:30.256Z,14.80
2017-10-17T23:20:11.272Z,14.80
2017-10-17T23:22:40.182Z,14.80
2017-10-17T23:25:07.683Z,14.70
2017-10-17T23:27:35.175Z,14.80
2017-10-17T23:30:03.041Z,14.80
2017-10-17T23:32:30.909Z,14.80
2017-10-17T23:34:58.385Z,14.80
2017-10-17T23:37:25.884Z,14.70
2017-10-17T23:39:53.387Z,14.70
2017-10-17T23:42:20.875Z,14.60
2017-10-17T23:44:50.023Z,14.50
2017-10-17T23:47:17.510Z,14.50
2017-10-17T23:49:48.132Z,14.60
2017-10-17T23:52:15.868Z,14.50
2017-10-17T23:54:43.402Z,14.60
2017-10-17T23:57:11.666Z,14.50
2017-10-17T23:59:39.909Z,14.50
